createdAt,value
2018-03-11T00:00:33.989Z,22.25
2018-03-11T00:01:37.326Z,26.25
2018-03-11T00:02:40.516Z,23.75
2018-03-11T00:03:44.252Z,20.50
2018-03-11T00:04:48.114Z,23.00
2018-03-11T00:05:51.642Z,31.50
2018-03-11T00:06:54.929Z,29.00
2018-03-11T00:07:58.330Z,18.00
2018-03-11T00:09:01.590Z,17.75
2018-03-11T00:10:05.145Z,23.75
2018-03-11T00:11:08.458Z,20.50
2018-03-11T00:12:11.646Z,23.25
2018-03-11T00:13:15.004Z,21.50
2018-03-11T00:14:18.351Z,19.50
2018-03-11T00:15:21.680Z,19.50
2018-03-11T00:16:25.298Z,22.50
2018-03-11T00:17:28.611Z,18.25
2018-03-11T00:18:31.905Z,22.00
2018-03-11T00:19:35.299Z,17.25
2018-03-11T00:20:38.643Z,21.00
2018-03-11T00:21:41.884Z,20.00
2018-03-11T00:22:45.496Z,26.00
2018-03-11T00:23:48.911Z,20.00
2018-03-11T00:24:52.176Z,17.50
2018-03-11T00:25:55.765Z,25.00
2018-03-11T00:26:59.888Z,23.25
2018-03-11T00:28:03.260Z,20.00
2018-03-11T00:29:06.809Z,22.50
2018-03-11T00:30:10.148Z,21.50
2018-03-11T00:31:13.473Z,20.00
2018-03-11T00:32:17.646Z,20.25
2018-03-11T00:33:20.927Z,20.00
2018-03-11T00:34:24.148Z,19.50
2018-03-11T00:35:27.775Z,23.00
2018-03-11T00:36:31.106Z,14.75
2018-03-11T00:37:35.042Z,25.50
2018-03-11T00:38:38.383Z,22.00
2018-03-11T00:39:42.443Z,20.25
2018-03-11T00:40:46.246Z,24.50
2018-03-11T00:41:49.984Z,25.50
2018-03-11T00:42:53.524Z,22.75
2018-03-11T00:43:57.160Z,22.00
2018-03-11T00:45:00.452Z,15.25
2018-03-11T00:46:03.906Z,22.75
2018-03-11T00:47:07.802Z,21.25
2018-03-11T00:48:11.424Z,25.00
2018-03-11T00:49:14.653Z,22.75
2018-03-11T00:50:18.364Z,19.50
2018-03-11T00:51:21.693Z,20.00
2018-03-11T00:52:25.006Z,24.75
2018-03-11T00:53:29.155Z,19.25
2018-03-11T00:54:32.739Z,24.00
2018-03-11T00:55:36.101Z,21.00
2018-03-11T00:56:39.625Z,23.25
2018-03-11T00:57:44.432Z,20.25
2018-03-11T00:58:47.837Z,21.50
2018-03-11T00:59:51.141Z,21.50
2018-03-11T01:00:54.882Z,24.25
2018-03-11T01:01:59.151Z,26.25
2018-03-11T01:03:04.274Z,21.25
2018-03-11T01:04:08.531Z,21.50
2018-03-11T01:05:11.899Z,24.50
2018-03-11T01:06:16.283Z,26.00
2018-03-11T01:07:19.932Z,21.25
2018-03-11T01:08:24.211Z,23.75
2018-03-11T01:09:27.638Z,20.00
2018-03-11T01:10:31.502Z,23.75
2018-03-11T01:11:34.821Z,27.50
2018-03-11T01:12:38.174Z,26.50
2018-03-11T01:13:43.542Z,21.75
2018-03-11T01:14:46.903Z,26.50
2018-03-11T01:15:50.915Z,23.50
2018-03-11T01:16:54.427Z,23.25
2018-03-11T01:17:58.107Z,22.50
2018-03-11T01:19:03.441Z,18.00
2018-03-11T01:20:07.119Z,27.50
2018-03-11T01:21:10.552Z,21.00
2018-03-11T01:22:14.031Z,23.25
2018-03-11T01:23:17.742Z,14.25
2018-03-11T01:24:22.818Z,23.00
2018-03-11T01:25:26.359Z,14.75
2018-03-11T01:26:31.094Z,21.25
2018-03-11T01:27:34.822Z,20.25
2018-03-11T01:28:39.176Z,22.75
2018-03-11T01:29:42.689Z,21.75
2018-03-11T01:30:46.260Z,28.25
2018-03-11T01:31:49.617Z,22.50
2018-03-11T01:32:53.331Z,28.50
2018-03-11T01:33:56.844Z,30.50
2018-03-11T01:35:00.246Z,18.00
2018-03-11T01:36:04.072Z,26.00
2018-03-11T01:37:07.508Z,19.25
2018-03-11T01:38:11.039Z,22.75
2018-03-11T01:39:14.670Z,32.00
2018-03-11T01:40:17.978Z,32.50
2018-03-11T01:41:21.496Z,29.00
2018-03-11T01:42:24.913Z,25.75
2018-03-11T01:43:28.901Z,31.25
2018-03-11T01:44:32.377Z,35.25
2018-03-11T01:45:36.328Z,29.25
2018-03-11T01:46:41.489Z,19.25
2018-03-11T01:47:45.315Z,21.75
2018-03-11T01:48:49.002Z,28.00
2018-03-11T01:49:52.454Z,31.75
2018-03-11T01:50:55.916Z,25.75
2018-03-11T01:51:59.482Z,23.50
2018-03-11T01:53:02.825Z,22.50
2018-03-11T01:54:06.503Z,23.00
2018-03-11T01:55:10.060Z,23.50
2018-03-11T01:56:13.614Z,27.25
2018-03-11T01:57:17.423Z,26.25
2018-03-11T01:58:20.832Z,29.25
2018-03-11T01:59:24.971Z,24.50
2018-03-11T02:00:28.421Z,19.00
2018-03-11T02:01:31.867Z,24.75
2018-03-11T02:02:36.344Z,24.00
2018-03-11T02:03:40.687Z,24.00
2018-03-11T02:04:44.291Z,24.25
2018-03-11T02:05:47.924Z,31.25
2018-03-11T02:06:51.723Z,22.25
2018-03-11T02:07:56.094Z,25.00
2018-03-11T02:08:59.615Z,18.00
2018-03-11T02:10:03.851Z,20.00
2018-03-11T02:11:07.661Z,16.00
2018-03-11T02:12:11.886Z,22.25
2018-03-11T02:13:16.970Z,24.25
2018-03-11T02:14:20.351Z,20.00
2018-03-11T02:15:24.970Z,17.00
2018-03-11T02:16:28.833Z,22.25
2018-03-11T02:17:32.475Z,25.50
2018-03-11T02:18:35.887Z,16.25
2018-03-11T02:19:39.681Z,16.50
2018-03-11T02:20:43.116Z,23.75
2018-03-11T02:21:46.994Z,20.75
2018-03-11T02:22:51.097Z,23.75
2018-03-11T02:23:54.922Z,21.00
2018-03-11T02:24:59.107Z,24.00
2018-03-11T02:26:02.600Z,13.50
2018-03-11T02:27:06.339Z,17.50
2018-03-11T02:28:09.906Z,22.50
2018-03-11T02:29:13.866Z,28.00
2018-03-11T02:30:17.273Z,23.00
2018-03-11T02:31:21.967Z,18.00
2018-03-11T02:32:25.576Z,20.75
2018-03-11T02:33:29.167Z,20.75
2018-03-11T02:34:32.439Z,20.25
2018-03-11T02:35:36.260Z,27.50
2018-03-11T02:36:40.010Z,26.25
2018-03-11T02:37:43.579Z,26.50
2018-03-11T02:38:48.696Z,18.00
2018-03-11T02:39:52.619Z,25.25
2018-03-11T02:40:56.289Z,21.00
2018-03-11T02:42:00.044Z,22.00
2018-03-11T02:43:03.438Z,20.00
2018-03-11T02:44:07.391Z,23.00
2018-03-11T02:45:10.760Z,22.00
2018-03-11T02:46:14.444Z,26.25
2018-03-11T02:47:18.159Z,28.75
2018-03-11T02:48:22.158Z,32.50
2018-03-11T02:49:26.177Z,28.00
2018-03-11T02:50:29.828Z,33.25
2018-03-11T02:51:34.240Z,26.50
2018-03-11T02:52:40.242Z,29.75
2018-03-11T02:53:44.435Z,34.50
2018-03-11T02:54:48.696Z,32.00
2018-03-11T02:55:52.472Z,28.75
2018-03-11T02:56:57.319Z,31.75
2018-03-11T02:58:01.868Z,28.25
2018-03-11T02:59:05.255Z,26.50
2018-03-11T03:00:09.097Z,36.75
2018-03-11T03:01:13.154Z,26.75
2018-03-11T03:02:16.756Z,30.50
2018-03-11T03:03:20.681Z,29.75
2018-03-11T03:04:25.450Z,31.75
2018-03-11T03:05:28.953Z,30.00
2018-03-11T03:06:32.460Z,27.25
2018-03-11T03:07:37.262Z,33.50
2018-03-11T03:08:40.760Z,31.00
2018-03-11T03:09:44.215Z,31.25
2018-03-11T03:10:47.746Z,29.00
2018-03-11T03:11:52.950Z,30.75
2018-03-11T03:12:56.604Z,30.50
2018-03-11T03:14:00.567Z,32.50
2018-03-11T03:15:04.053Z,24.75
2018-03-11T03:16:07.556Z,34.50
2018-03-11T03:17:11.015Z,26.50
2018-03-11T03:18:16.053Z,32.50
2018-03-11T03:19:21.053Z,28.00
2018-03-11T03:20:24.991Z,31.75
2018-03-11T03:21:30.163Z,32.25
2018-03-11T03:22:33.820Z,26.75
2018-03-11T03:23:37.890Z,29.75
2018-03-11T03:24:41.517Z,29.75
2018-03-11T03:25:44.973Z,37.50
2018-03-11T03:26:48.667Z,27.75
2018-03-11T03:27:52.172Z,20.25
2018-03-11T03:28:55.805Z,27.00
2018-03-11T03:29:59.099Z,28.00
2018-03-11T03:31:03.113Z,32.50
2018-03-11T03:32:06.591Z,33.25
2018-03-11T03:33:10.164Z,34.00
2018-03-11T03:34:14.409Z,28.75
2018-03-11T03:35:18.145Z,27.75
2018-03-11T03:36:23.259Z,29.50
2018-03-11T03:37:27.133Z,27.00
2018-03-11T03:38:30.778Z,35.75
2018-03-11T03:39:35.104Z,38.75
2018-03-11T03:40:38.794Z,26.00
2018-03-11T03:41:42.469Z,25.75
2018-03-11T03:42:47.767Z,31.25
2018-03-11T03:43:52.126Z,31.25
2018-03-11T03:44:55.860Z,34.75
2018-03-11T03:45:59.939Z,30.50
2018-03-11T03:47:03.171Z,29.75
2018-03-11T03:48:07.417Z,29.75
2018-03-11T03:49:11.162Z,34.00
2018-03-11T03:50:15.577Z,32.25
2018-03-11T03:51:20.865Z,26.75
2018-03-11T03:52:26.121Z,31.25
2018-03-11T03:53:29.987Z,41.00
2018-03-11T03:54:33.950Z,26.75
2018-03-11T03:55:37.838Z,32.25
2018-03-11T03:56:41.151Z,32.00
2018-03-11T03:57:45.100Z,29.75
2018-03-11T03:58:49.894Z,34.50
2018-03-11T03:59:53.150Z,35.25
2018-03-11T04:00:58.061Z,35.00
2018-03-11T04:02:01.502Z,28.00
2018-03-11T04:03:05.803Z,35.25
2018-03-11T04:04:09.328Z,30.75
2018-03-11T04:05:13.001Z,30.25
2018-03-11T04:06:17.147Z,38.25
2018-03-11T04:07:20.749Z,32.00
2018-03-11T04:08:25.228Z,45.75
2018-03-11T04:09:28.777Z,36.25
2018-03-11T04:10:33.076Z,31.50
2018-03-11T04:11:38.063Z,34.75
2018-03-11T04:12:42.949Z,31.50
2018-03-11T04:13:47.233Z,29.75
2018-03-11T04:14:50.872Z,33.00
2018-03-11T04:15:55.528Z,30.50
2018-03-11T04:16:59.405Z,25.25
2018-03-11T04:18:03.147Z,29.50
2018-03-11T04:19:06.693Z,30.25
2018-03-11T04:20:10.101Z,30.25
2018-03-11T04:21:13.995Z,34.25
2018-03-11T04:22:17.734Z,28.00
2018-03-11T04:23:21.274Z,32.75
2018-03-11T04:24:25.555Z,29.75
2018-03-11T04:25:28.902Z,35.75
2018-03-11T04:26:32.528Z,29.25
2018-03-11T04:27:35.981Z,26.00
2018-03-11T04:28:39.782Z,33.75
2018-03-11T04:29:43.493Z,27.25
2018-03-11T04:30:48.515Z,29.50
2018-03-11T04:31:51.758Z,33.50
2018-03-11T04:32:54.899Z,35.00
2018-03-11T04:33:58.266Z,31.00
2018-03-11T04:35:02.135Z,32.50
2018-03-11T04:36:06.483Z,31.75
2018-03-11T04:37:10.405Z,29.50
2018-03-11T04:38:15.554Z,34.00
2018-03-11T04:39:18.901Z,31.00
2018-03-11T04:40:22.280Z,30.75
2018-03-11T04:41:27.582Z,28.50
2018-03-11T04:42:31.155Z,30.50
2018-03-11T04:43:36.165Z,34.00
2018-03-11T04:44:39.785Z,27.75
2018-03-11T04:45:43.126Z,34.00
2018-03-11T04:46:46.465Z,30.25
2018-03-11T04:47:50.669Z,30.00
2018-03-11T04:48:54.512Z,36.00
2018-03-11T04:49:59.090Z,31.50
2018-03-11T04:51:02.511Z,29.25
2018-03-11T04:52:06.074Z,32.00
2018-03-11T04:53:09.723Z,35.00
2018-03-11T04:54:13.005Z,27.25
2018-03-11T04:55:16.535Z,31.75
2018-03-11T04:56:20.360Z,28.00
2018-03-11T04:57:23.802Z,29.25
2018-03-11T04:58:27.000Z,27.75
2018-03-11T04:59:30.451Z,27.00
2018-03-11T05:00:34.069Z,28.50
2018-03-11T05:01:38.152Z,29.50
2018-03-11T05:02:43.289Z,27.50
2018-03-11T05:03:46.351Z,25.25
2018-03-11T05:04:49.679Z,28.00
2018-03-11T05:05:52.970Z,26.25
2018-03-11T05:06:56.664Z,31.25
2018-03-11T05:08:01.502Z,27.00
2018-03-11T05:09:05.071Z,29.75
2018-03-11T05:10:08.607Z,24.25
2018-03-11T05:11:11.864Z,24.75
2018-03-11T05:12:16.336Z,36.00
2018-03-11T05:13:19.549Z,29.75
2018-03-11T05:14:22.853Z,26.25
2018-03-11T05:15:27.041Z,25.50
2018-03-11T05:16:32.324Z,27.25
2018-03-11T05:17:35.602Z,28.75
2018-03-11T05:18:38.895Z,23.50
2018-03-11T05:19:42.375Z,23.50
2018-03-11T05:20:45.892Z,20.00
2018-03-11T05:21:51.017Z,33.50
2018-03-11T05:22:54.446Z,26.00
2018-03-11T05:23:57.881Z,22.75
2018-03-11T05:25:01.791Z,29.75
2018-03-11T05:26:05.515Z,28.00
2018-03-11T05:27:09.069Z,36.75
2018-03-11T05:28:14.579Z,35.00
2018-03-11T05:29:18.297Z,26.25
2018-03-11T05:30:21.885Z,21.25
2018-03-11T05:31:25.490Z,24.25
2018-03-11T05:32:28.916Z,27.25
2018-03-11T05:33:33.629Z,26.00
2018-03-11T05:34:37.129Z,30.75
2018-03-11T05:35:41.232Z,25.25
2018-03-11T05:36:44.668Z,20.00
2018-03-11T05:37:48.098Z,24.50
2018-03-11T05:38:51.342Z,21.50
2018-03-11T05:39:55.318Z,19.25
2018-03-11T05:40:59.849Z,25.75
2018-03-11T05:42:05.626Z,26.75
2018-03-11T05:43:09.203Z,31.75
2018-03-11T05:44:13.187Z,29.50
2018-03-11T05:45:17.336Z,23.50
2018-03-11T05:46:21.371Z,29.00
2018-03-11T05:47:25.248Z,30.00
2018-03-11T05:48:30.761Z,24.50
2018-03-11T05:49:34.119Z,24.75
2018-03-11T05:50:37.609Z,28.00
2018-03-11T05:51:41.624Z,22.00
2018-03-11T05:52:45.503Z,29.25
2018-03-11T05:53:49.372Z,25.75
2018-03-11T05:54:53.819Z,23.50
2018-03-11T05:55:56.992Z,28.75
2018-03-11T05:57:00.621Z,30.50
2018-03-11T05:58:04.855Z,25.75
2018-03-11T05:59:09.558Z,24.50
2018-03-11T06:00:14.622Z,35.50
2018-03-11T06:01:19.172Z,24.50
2018-03-11T06:02:22.625Z,32.25
2018-03-11T06:03:26.242Z,25.75
2018-03-11T06:04:30.445Z,25.50
2018-03-11T06:05:34.229Z,37.00
2018-03-11T06:06:38.230Z,35.25
2018-03-11T06:07:41.803Z,33.00
2018-03-11T06:08:45.274Z,28.25
2018-03-11T06:09:49.072Z,29.50
2018-03-11T06:10:52.571Z,36.00
2018-03-11T06:11:56.106Z,33.50
2018-03-11T06:12:59.981Z,29.75
2018-03-11T06:14:03.448Z,25.00
2018-03-11T06:15:06.864Z,35.25
2018-03-11T06:16:10.650Z,40.75
2018-03-11T06:17:14.176Z,26.25
2018-03-11T06:18:17.826Z,37.25
2018-03-11T06:19:21.872Z,28.50
2018-03-11T06:20:25.332Z,27.00
2018-03-11T06:21:29.021Z,26.50
2018-03-11T06:22:32.823Z,29.25
2018-03-11T06:23:36.437Z,27.25
2018-03-11T06:24:40.056Z,21.75
2018-03-11T06:25:44.159Z,27.50
2018-03-11T06:26:50.513Z,27.75
2018-03-11T06:27:54.174Z,28.50
2018-03-11T06:28:57.761Z,30.25
2018-03-11T06:30:01.308Z,35.25
2018-03-11T06:31:04.978Z,28.50
2018-03-11T06:32:08.956Z,28.25
2018-03-11T06:33:12.588Z,35.75
2018-03-11T06:34:17.051Z,28.25
2018-03-11T06:35:20.715Z,26.00
2018-03-11T06:36:24.287Z,25.50
2018-03-11T06:37:27.858Z,31.25
2018-03-11T06:38:31.712Z,32.00
2018-03-11T06:39:35.444Z,28.75
2018-03-11T06:40:39.003Z,34.50
2018-03-11T06:41:42.885Z,24.25
2018-03-11T06:42:46.530Z,33.00
2018-03-11T06:43:50.354Z,30.00
2018-03-11T06:44:54.257Z,21.50
2018-03-11T06:45:57.910Z,31.00
2018-03-11T06:47:01.506Z,27.75
2018-03-11T06:48:05.149Z,31.00
2018-03-11T06:49:08.667Z,25.50
2018-03-11T06:50:12.317Z,30.50
2018-03-11T06:51:16.335Z,31.00
2018-03-11T06:52:19.881Z,29.00
2018-03-11T06:53:23.442Z,26.25
2018-03-11T06:54:27.172Z,30.50
2018-03-11T06:55:31.030Z,45.50
2018-03-11T06:56:34.567Z,26.25
2018-03-11T06:57:38.570Z,26.00
2018-03-11T06:58:42.220Z,30.50
2018-03-11T06:59:45.676Z,34.75
2018-03-11T07:00:49.367Z,34.75
2018-03-11T07:01:52.838Z,37.25
2018-03-11T07:02:56.328Z,31.00
2018-03-11T07:04:00.129Z,25.50
2018-03-11T07:05:03.773Z,28.00
2018-03-11T07:06:07.548Z,29.00
2018-03-11T07:07:11.163Z,28.50
2018-03-11T07:08:14.875Z,26.00
2018-03-11T07:09:18.340Z,34.75
2018-03-11T07:10:22.183Z,26.50
2018-03-11T07:11:25.672Z,27.25
2018-03-11T07:12:29.262Z,29.00
2018-03-11T07:13:32.713Z,29.50
2018-03-11T07:14:36.517Z,26.00
2018-03-11T07:15:40.200Z,32.50
2018-03-11T07:16:43.735Z,35.25
2018-03-11T07:17:47.370Z,26.75
2018-03-11T07:18:50.893Z,32.75
2018-03-11T07:19:54.326Z,26.00
2018-03-11T07:20:57.731Z,26.50
2018-03-11T07:22:01.478Z,32.25
2018-03-11T07:23:05.077Z,30.25
2018-03-11T07:24:08.590Z,24.00
2018-03-11T07:25:12.040Z,25.00
2018-03-11T07:26:15.524Z,29.00
2018-03-11T07:27:18.999Z,35.00
2018-03-11T07:28:22.750Z,28.25
2018-03-11T07:29:26.204Z,25.75
2018-03-11T07:30:29.614Z,25.00
2018-03-11T07:31:32.991Z,25.75
2018-03-11T07:32:36.557Z,30.50
2018-03-11T07:33:40.123Z,29.50
2018-03-11T07:34:43.898Z,26.00
2018-03-11T07:35:47.396Z,25.50
2018-03-11T07:36:50.824Z,29.75
2018-03-11T07:37:54.193Z,18.50
2018-03-11T07:38:57.796Z,27.50
2018-03-11T07:40:01.263Z,23.25
2018-03-11T07:41:05.180Z,26.50
2018-03-11T07:42:08.739Z,28.25
2018-03-11T07:43:12.198Z,27.50
2018-03-11T07:44:15.666Z,28.50
2018-03-11T07:45:19.038Z,17.75
2018-03-11T07:46:22.346Z,28.25
2018-03-11T07:47:25.978Z,28.25
2018-03-11T07:48:29.319Z,23.25
2018-03-11T07:49:32.662Z,22.50
2018-03-11T07:50:36.093Z,27.00
2018-03-11T07:51:39.552Z,20.00
2018-03-11T07:52:43.099Z,25.50
2018-03-11T07:53:47.256Z,23.00
2018-03-11T07:54:50.562Z,22.75
2018-03-11T07:55:53.926Z,23.25
2018-03-11T07:56:57.296Z,20.00
2018-03-11T07:58:00.652Z,25.25
2018-03-11T07:59:04.004Z,25.50
2018-03-11T08:00:07.640Z,19.50
2018-03-11T08:01:10.942Z,23.50
2018-03-11T08:02:14.223Z,27.50
2018-03-11T08:03:17.607Z,21.00
2018-03-11T08:04:20.962Z,25.00
2018-03-11T08:05:24.223Z,20.00
2018-03-11T08:06:27.980Z,20.25
2018-03-11T08:07:32.549Z,22.00
2018-03-11T08:08:35.982Z,22.00
2018-03-11T08:09:39.293Z,22.00
2018-03-11T08:10:42.636Z,25.50
2018-03-11T08:11:46.032Z,21.00
2018-03-11T08:12:49.691Z,21.50
2018-03-11T08:13:53.046Z,26.50
2018-03-11T08:14:56.424Z,26.50
2018-03-11T08:15:59.641Z,17.50
2018-03-11T08:17:02.923Z,26.00
2018-03-11T08:18:06.270Z,20.00
2018-03-11T08:19:10.107Z,22.00
2018-03-11T08:20:13.422Z,19.25
2018-03-11T08:21:16.771Z,20.25
2018-03-11T08:22:20.175Z,20.75
2018-03-11T08:23:23.446Z,19.75
2018-03-11T08:24:26.847Z,25.50
2018-03-11T08:25:30.617Z,19.50
2018-03-11T08:26:33.968Z,17.75
2018-03-11T08:27:37.254Z,22.25
2018-03-11T08:28:40.529Z,17.50
2018-03-11T08:29:43.900Z,19.50
2018-03-11T08:30:47.299Z,23.25
2018-03-11T08:31:50.987Z,18.00
2018-03-11T08:32:54.361Z,16.00
2018-03-11T08:33:57.777Z,17.25
2018-03-11T08:35:01.020Z,19.50
2018-03-11T08:36:04.384Z,21.75
2018-03-11T08:37:07.690Z,17.00
2018-03-11T08:38:11.139Z,25.75
2018-03-11T08:39:14.382Z,21.00
2018-03-11T08:40:17.734Z,20.00
2018-03-11T08:41:20.985Z,16.00
2018-03-11T08:42:24.273Z,17.25
2018-03-11T08:43:27.556Z,17.00
2018-03-11T08:44:31.118Z,14.50
2018-03-11T08:45:34.402Z,19.25
2018-03-11T08:46:37.776Z,19.00
2018-03-11T08:47:40.974Z,19.25
2018-03-11T08:48:44.208Z,18.50
2018-03-11T08:49:47.454Z,17.00
2018-03-11T08:50:51.067Z,19.50
2018-03-11T08:51:54.750Z,14.50
2018-03-11T08:52:58.839Z,15.75
2018-03-11T08:54:02.234Z,17.50
2018-03-11T08:55:05.606Z,19.25
2018-03-11T08:56:09.017Z,15.50
2018-03-11T08:57:13.680Z,12.25
2018-03-11T08:58:18.235Z,19.25
2018-03-11T08:59:23.243Z,16.00
2018-03-11T09:00:27.498Z,18.25
2018-03-11T09:01:30.816Z,16.00
2018-03-11T09:02:34.058Z,15.50
2018-03-11T09:03:37.901Z,17.00
2018-03-11T09:04:42.542Z,17.25
2018-03-11T09:05:47.190Z,15.00
2018-03-11T09:06:52.105Z,19.50
2018-03-11T09:07:56.270Z,15.00
2018-03-11T09:08:59.489Z,13.50
2018-03-11T09:10:03.228Z,15.00
2018-03-11T09:11:06.495Z,13.00
2018-03-11T09:12:10.275Z,16.75
2018-03-11T09:13:13.905Z,15.50
2018-03-11T09:14:17.751Z,18.50
2018-03-11T09:15:21.268Z,18.00
2018-03-11T09:16:25.254Z,20.25
2018-03-11T09:17:28.477Z,20.00
2018-03-11T09:18:32.127Z,17.00
2018-03-11T09:19:35.375Z,21.50
2018-03-11T09:20:39.240Z,16.00
2018-03-11T09:21:42.559Z,13.50
2018-03-11T09:22:46.431Z,16.25
2018-03-11T09:23:49.616Z,15.00
2018-03-11T09:24:53.145Z,15.75
2018-03-11T09:25:57.885Z,18.00
2018-03-11T09:27:02.058Z,15.00
2018-03-11T09:28:05.215Z,15.00
2018-03-11T09:29:08.800Z,17.25
2018-03-11T09:30:12.027Z,16.00
2018-03-11T09:31:15.680Z,15.00
2018-03-11T09:32:19.247Z,16.00
2018-03-11T09:33:24.109Z,15.00
2018-03-11T09:34:27.322Z,16.00
2018-03-11T09:35:31.230Z,16.50
2018-03-11T09:36:34.561Z,13.50
2018-03-11T09:37:37.685Z,15.25
2018-03-11T09:38:40.944Z,15.00
2018-03-11T09:39:44.455Z,15.25
2018-03-11T09:40:49.143Z,14.50
2018-03-11T09:41:53.567Z,10.00
2018-03-11T09:42:56.876Z,14.00
2018-03-11T09:44:00.020Z,15.50
2018-03-11T09:45:03.221Z,13.75
2018-03-11T09:46:06.345Z,16.00
2018-03-11T09:47:10.640Z,17.25
2018-03-11T09:48:15.076Z,15.00
2018-03-11T09:49:18.512Z,13.00
2018-03-11T09:50:21.795Z,13.00
2018-03-11T09:51:25.023Z,11.00
2018-03-11T09:52:28.353Z,11.00
2018-03-11T09:53:32.070Z,13.00
2018-03-11T09:54:36.113Z,10.25
2018-03-11T09:55:39.418Z,13.00
2018-03-11T09:56:42.642Z,12.50
2018-03-11T09:57:45.894Z,15.75
2018-03-11T09:58:50.109Z,13.00
2018-03-11T09:59:53.249Z,13.00
2018-03-11T10:00:58.113Z,13.00
2018-03-11T10:02:01.976Z,11.50
2018-03-11T10:03:05.386Z,10.75
2018-03-11T10:04:08.786Z,15.75
2018-03-11T10:05:11.925Z,14.00
2018-03-11T10:06:15.417Z,12.50
2018-03-11T10:07:19.681Z,12.50
2018-03-11T10:08:23.107Z,12.00
2018-03-11T10:09:26.385Z,11.00
2018-03-11T10:10:29.684Z,14.00
2018-03-11T10:11:33.041Z,11.50
2018-03-11T10:12:36.541Z,13.25
2018-03-11T10:13:41.118Z,14.75
2018-03-11T10:14:44.357Z,11.00
2018-03-11T10:15:47.613Z,15.25
2018-03-11T10:16:50.926Z,9.75
2018-03-11T10:17:54.325Z,9.25
2018-03-11T10:18:58.685Z,14.75
2018-03-11T10:20:03.117Z,13.00
2018-03-11T10:21:06.990Z,12.25
2018-03-11T10:22:10.296Z,12.75
2018-03-11T10:23:14.482Z,13.50
2018-03-11T10:24:17.698Z,13.00
2018-03-11T10:25:21.439Z,13.50
2018-03-11T10:26:25.461Z,13.25
2018-03-11T10:27:28.913Z,14.75
2018-03-11T10:28:32.218Z,13.25
2018-03-11T10:29:35.432Z,13.00
2018-03-11T10:30:39.868Z,17.00
2018-03-11T10:31:43.804Z,15.75
2018-03-11T10:32:48.087Z,13.00
2018-03-11T10:33:51.947Z,11.00
2018-03-11T10:34:55.378Z,14.00
2018-03-11T10:35:58.859Z,12.50
2018-03-11T10:37:02.141Z,11.00
2018-03-11T10:38:05.419Z,10.75
2018-03-11T10:39:10.616Z,13.25
2018-03-11T10:40:14.144Z,13.75
2018-03-11T10:41:18.141Z,12.00
2018-03-11T10:42:22.325Z,12.00
2018-03-11T10:43:25.535Z,12.50
2018-03-11T10:44:28.773Z,11.00
2018-03-11T10:45:32.320Z,9.25
2018-03-11T10:46:36.230Z,10.75
2018-03-11T10:47:40.503Z,11.00
2018-03-11T10:48:43.820Z,11.00
2018-03-11T10:49:47.093Z,12.50
2018-03-11T10:50:50.571Z,12.50
2018-03-11T10:51:55.622Z,12.00
2018-03-11T10:52:59.375Z,13.50
2018-03-11T10:54:02.736Z,15.00
2018-03-11T10:55:06.038Z,13.00
2018-03-11T10:56:09.181Z,11.50
2018-03-11T10:57:12.834Z,11.00
2018-03-11T10:58:16.792Z,13.75
2018-03-11T10:59:20.104Z,11.50
2018-03-11T11:00:23.674Z,12.50
2018-03-11T11:01:30.821Z,9.00
2018-03-11T11:02:38.177Z,11.00
2018-03-11T11:03:45.827Z,10.75
2018-03-11T11:04:52.903Z,14.00
2018-03-11T11:05:56.432Z,8.25
2018-03-11T11:06:59.926Z,11.00
2018-03-11T11:08:03.050Z,7.50
2018-03-11T11:09:06.283Z,8.75
2018-03-11T11:10:10.276Z,8.75
2018-03-11T11:11:14.583Z,8.50
2018-03-11T11:12:18.251Z,5.50
2018-03-11T11:13:22.409Z,7.50
2018-03-11T11:14:25.751Z,8.00
2018-03-11T11:15:29.199Z,4.00
2018-03-11T11:16:32.848Z,8.50
2018-03-11T11:17:37.014Z,8.00
2018-03-11T11:18:41.385Z,4.75
2018-03-11T11:19:45.182Z,7.50
2018-03-11T11:20:48.404Z,4.75
2018-03-11T11:21:52.251Z,7.00
2018-03-11T11:22:57.269Z,6.00
2018-03-11T11:24:00.904Z,6.00
2018-03-11T11:25:05.082Z,8.00
2018-03-11T11:26:08.464Z,8.25
2018-03-11T11:27:12.221Z,6.00
2018-03-11T11:28:15.451Z,6.00
2018-03-11T11:29:19.127Z,6.50
2018-03-11T11:30:23.899Z,4.50
2018-03-11T11:31:27.828Z,5.50
2018-03-11T11:32:31.489Z,9.00
2018-03-11T11:33:35.449Z,5.50
2018-03-11T11:34:38.667Z,7.00
2018-03-11T11:35:42.199Z,4.00
2018-03-11T11:36:46.027Z,6.00
2018-03-11T11:37:49.701Z,6.00
2018-03-11T11:38:53.506Z,8.00
2018-03-11T11:39:57.004Z,6.25
2018-03-11T11:41:00.312Z,5.50
2018-03-11T11:42:04.701Z,7.00
2018-03-11T11:43:08.701Z,6.00
2018-03-11T11:44:12.337Z,8.50
2018-03-11T11:45:16.065Z,7.25
2018-03-11T11:46:19.431Z,6.75
2018-03-11T11:47:22.712Z,9.00
2018-03-11T11:48:27.229Z,7.50
2018-03-11T11:49:31.714Z,7.75
2018-03-11T11:50:36.553Z,5.00
2018-03-11T11:51:40.331Z,9.00
2018-03-11T11:52:45.199Z,6.00
2018-03-11T11:53:49.592Z,4.00
2018-03-11T11:54:54.826Z,8.00
2018-03-11T11:55:58.792Z,6.00
2018-03-11T11:57:04.200Z,6.00
2018-03-11T11:58:08.530Z,4.50
2018-03-11T11:59:13.348Z,8.25
2018-03-11T12:00:20.994Z,5.00
2018-03-11T12:01:26.026Z,7.50
2018-03-11T12:02:29.793Z,4.00
2018-03-11T12:03:35.784Z,3.50
2018-03-11T12:04:41.091Z,4.00
2018-03-11T12:05:45.114Z,4.00
2018-03-11T12:06:48.645Z,4.00
2018-03-11T12:07:53.176Z,4.00
2018-03-11T12:08:56.895Z,6.50
2018-03-11T12:10:00.790Z,5.00
2018-03-11T12:11:04.307Z,6.00
2018-03-11T12:12:08.552Z,6.00
2018-03-11T12:13:13.666Z,4.00
2018-03-11T12:14:17.767Z,4.00
2018-03-11T12:15:23.388Z,6.00
2018-03-11T12:16:27.999Z,7.00
2018-03-11T12:17:31.882Z,6.00
2018-03-11T12:18:35.333Z,6.00
2018-03-11T12:19:38.526Z,4.00
2018-03-11T12:20:42.918Z,6.00
2018-03-11T12:21:46.607Z,5.00
2018-03-11T12:22:50.880Z,4.00
2018-03-11T12:23:55.737Z,4.00
2018-03-11T12:25:01.430Z,5.00
2018-03-11T12:26:08.077Z,4.00
2018-03-11T12:27:13.584Z,6.00
2018-03-11T12:28:19.043Z,6.00
2018-03-11T12:29:23.746Z,5.00
2018-03-11T12:30:27.497Z,4.50
2018-03-11T12:31:30.942Z,5.50
2018-03-11T12:32:34.453Z,5.50
2018-03-11T12:33:38.374Z,4.00
2018-03-11T12:34:43.389Z,6.00
2018-03-11T12:35:48.091Z,7.50
2018-03-11T12:36:51.915Z,4.00
2018-03-11T12:37:55.920Z,7.50
2018-03-11T12:39:00.942Z,6.00
2018-03-11T12:40:06.591Z,5.00
2018-03-11T12:41:12.298Z,3.75
2018-03-11T12:42:16.548Z,6.00
2018-03-11T12:43:20.114Z,7.00
2018-03-11T12:44:24.264Z,6.00
2018-03-11T12:45:29.037Z,5.00
2018-03-11T12:46:33.557Z,7.50
2018-03-11T12:47:36.996Z,4.00
2018-03-11T12:48:41.512Z,5.50
2018-03-11T12:49:46.614Z,5.00
2018-03-11T12:50:51.569Z,4.00
2018-03-11T12:51:57.459Z,4.00
2018-03-11T12:53:01.795Z,4.00
2018-03-11T12:54:05.607Z,4.00
2018-03-11T12:55:09.370Z,7.00
2018-03-11T12:56:13.690Z,6.00
2018-03-11T12:57:18.927Z,4.00
2018-03-11T12:58:22.782Z,5.00
2018-03-11T12:59:27.651Z,6.00
2018-03-11T13:00:31.452Z,4.00
2018-03-11T13:01:36.352Z,7.00
2018-03-11T13:02:40.370Z,5.00
2018-03-11T13:03:46.466Z,6.00
2018-03-11T13:04:53.558Z,6.00
2018-03-11T13:06:00.219Z,6.00
2018-03-11T13:07:07.413Z,7.00
2018-03-11T13:08:13.256Z,3.00
2018-03-11T13:09:21.349Z,5.00
2018-03-11T13:10:26.221Z,5.50
2018-03-11T13:11:31.772Z,6.00
2018-03-11T13:12:38.382Z,6.50
2018-03-11T13:13:44.232Z,4.00
2018-03-11T13:14:49.193Z,6.50
2018-03-11T13:15:54.031Z,4.00
2018-03-11T13:16:59.271Z,5.00
2018-03-11T13:18:03.797Z,4.00
2018-03-11T13:19:12.337Z,7.00
2018-03-11T13:20:17.740Z,3.75
2018-03-11T13:21:23.015Z,3.00
2018-03-11T13:22:29.136Z,3.50
2018-03-11T13:23:34.223Z,4.00
2018-03-11T13:24:39.298Z,6.75
2018-03-11T13:25:44.766Z,4.50
2018-03-11T13:26:49.690Z,5.00
2018-03-11T13:27:56.322Z,4.00
2018-03-11T13:29:00.415Z,3.25
2018-03-11T13:30:04.762Z,4.00
2018-03-11T13:31:10.259Z,3.00
2018-03-11T13:32:14.946Z,4.00
2018-03-11T13:33:22.666Z,7.00
2018-03-11T13:34:27.292Z,5.00
2018-03-11T13:35:31.743Z,3.75
2018-03-11T13:36:36.808Z,4.00
2018-03-11T13:37:42.938Z,5.00
2018-03-11T13:38:48.503Z,6.00
2018-03-11T13:39:53.331Z,6.00
2018-03-11T13:40:57.776Z,4.00
2018-03-11T13:42:04.179Z,4.00
2018-03-11T13:43:08.913Z,3.75
2018-03-11T13:44:13.756Z,6.00
2018-03-11T13:45:20.657Z,5.00
2018-03-11T13:46:27.429Z,4.00
2018-03-11T13:47:32.533Z,4.00
2018-03-11T13:48:38.982Z,6.00